Fort Yates, North Dakota
Current Conditions -  °F | °C
As of 11:55 AM on Wednesday 26 Nov 2014 (Local Time) from K7L2 Reporting Station
Light Snow Light Snow  
Wind Chill:   Ceiling: 1300
Heat Index:   Visibility: 8mi
Dew Point:   Wind: 5mph
Humidity: 85%   Direction: 10°N
Pressure: 30.36"   Gusts: NA
Location:  46.09°N, 100.64°W
Report Text: K7L2 261855Z AUTO 01004KT 8SM -SN FEW003 BKN013 OVC021 M13/M15 A3036 RMK AO2 P0002
Loading
Personal Weather Stations






























Interactive Weather Map New forecast layout! Learn more

10-Day Weather Forecast

Advertisements
Track Severe Weather on mobile